Flight Track Log - Related Links

Times and Time Zones

All times are in EDT time to prevent confusion due to time zone crossing. See the N989WU flight status page for this flight to view local times or setup timezone preferences in your user account.

Time Position Orientation Groundspeed Altitude Reporting Facility
EDT Latitude Longitude Course Direction KTS MPH feet Rate Location/Type
Sat 07:34:55 PM 24.5542 -81.7311 11° North 100 115 700  Level Miami Center
Sat 07:35:55 PM 24.5550 -81.7081 88° East 93 107 1,300 550 Climbing Miami Center
Sat 07:36:55 PM 24.5558 -81.6831 88° East 87 100 1,800 500 Climbing Miami Center
Sat 07:37:00 PM 24.6873 -81.7325 11° North  Level FlightAware Approximate
Sat 07:37:55 PM 24.5567 -81.6558 88° East 87 100 2,300  Level Miami Center
Sat 07:38:55 PM 24.5594 -81.6331 82° East 87 100 2,800 500 Climbing Miami Center
Sat 07:39:55 PM 24.5725 -81.6175 47° Northeast 75 86 3,300 450 Climbing Miami Center
Sat 07:40:55 PM 24.5936 -81.6117 14° North 64 74 3,700 400 Climbing Miami Center
Sat 07:41:55 PM 24.6125 -81.6100 North 64 74 4,100 400 Climbing Miami Center
Sat 07:42:55 PM 24.6353 -81.6108 358° North 70 81 4,500 350 Climbing Miami Center
Sat 07:43:55 PM 24.6586 -81.6072 North 70 81 4,800 350 Climbing Miami Center
Sat 07:44:55 PM 24.6858 -81.6036 North 83 96 5,200 350 Climbing Miami Center
Sat 07:45:55 PM 24.7089 -81.6000 North 83 96 5,500 350 Climbing Miami Center
Sat 07:46:55 PM 24.7361 -81.5942 11° North 83 96 5,900 200 Climbing Miami Center
Sat 07:47:55 PM 24.7617 -81.5836 21° North 88 101 5,900  Level Miami Center
Sat 07:48:55 PM 24.7892 -81.5733 19° North 88 101 5,900  Level Miami Center
Sat 07:49:55 PM 24.8181 -81.5767 354° North 93 107 5,900  Level Miami Center
Sat 07:50:55 PM 24.8472 -81.5800 354° North 93 107 5,900  Level Miami Center
Sat 07:51:55 PM 24.8744 -81.5833 354° North 98 113 5,900  Level Miami Center
Sat 07:52:55 PM 24.9033 -81.5892 350° North 98 113 5,900  Level Miami Center
Sat 07:53:55 PM 24.9303 -81.5947 349° North 103 119 5,900 50 Level Miami Center
Sat 07:54:55 PM 24.9572 -81.6025 345° North 103 119 6,000  Climbing Miami Center
Sat 07:55:55 PM 24.9864 -81.6083 350° North 103 119 5,900 -50 Descending Miami Center
Sat 07:56:55 PM 25.0133 -81.6117 354° North 103 119 5,900  Level Miami Center
Sat 07:57:55 PM 25.0381 -81.6194 344° North 103 119 5,900  Level Miami Center
Sat 07:58:55 PM 25.0672 -81.6253 350° North 103 119 5,900  Level Miami Center
Sat 07:59:55 PM 25.0942 -81.6308 349° North 103 119 5,900  Level Miami Center
Sat 08:00:55 PM 25.1214 -81.6319 358° North 103 119 5,900 -50 Level Miami Center
Sat 08:01:55 PM 25.1525 -81.6331 358° North 103 119 5,800 -50 Descending Miami Center
Sat 08:02:55 PM 25.1797 -81.6319 North 103 119 5,800 50 Level Miami Center
Sat 08:03:55 PM 25.2069 -81.6331 358° North 103 119 5,900  Climbing Miami Center
Sat 08:04:55 PM 25.2342 -81.6317 North 103 119 5,800  Descending Miami Center
Sat 08:05:55 PM 25.2611 -81.6350 354° North 103 119 5,900 50 Climbing Miami Center
Sat 08:06:55 PM 25.2861 -81.6406 349° North 98 113 5,900  Level Miami Center
Sat 08:07:55 PM 25.3106 -81.6508 339° North 93 107 5,900  Level Miami Center
Sat 08:08:55 PM 25.3356 -81.6611 340° North 93 107 5,900  Level Miami Center
Sat 08:09:55 PM 25.3625 -81.6644 354° North 93 107 5,900 -50 Level Miami Center
Sat 08:10:55 PM 25.3894 -81.6678 354° North 87 100 5,800 -100 Descending Miami Center
Sat 08:11:55 PM 25.4167 -81.6642 North 87 100 5,700 -300 Descending Miami Center
Sat 08:12:55 PM 25.4506 -81.6564 12° North 94 108 5,200 -450 Descending Miami Center
Sat 08:13:55 PM 25.4839 -81.6531 North 106 122 4,800 -450 Descending Miami Center
Sat 08:14:55 PM 25.5153 -81.6567 354° North 112 129 4,300 -400 Descending Miami Center
Sat 08:15:55 PM 25.5444 -81.6556 North 112 129 4,000 -250 Descending Miami Center
Sat 08:16:55 PM 25.5736 -81.6544 North 102 117 3,800 -50 Descending Miami Center
Sat 08:17:55 PM 25.6008 -81.6578 354° North 102 117 3,900 50 Climbing Miami Center
Sat 08:18:55 PM 25.6258 -81.6564 North 102 117 3,900  Level Miami Center
Sat 08:19:55 PM 25.6531 -81.6550 North 97 112 3,900 50 Level Miami Center
Sat 08:20:55 PM 25.6800 -81.6586 353° North 97 112 4,000  Climbing Miami Center
Sat 08:21:55 PM 25.7092 -81.6619 354° North 97 112 3,900 -50 Descending Miami Center
Sat 08:22:55 PM 25.7361 -81.6678 349° North 102 117 3,900  Level Miami Center
Sat 08:23:55 PM 25.7631 -81.6781 341° North 102 117 3,900  Level Miami Center
Sat 08:24:55 PM 25.7878 -81.6858 344° North 102 117 3,900 -50 Level Miami Center
Sat 08:25:55 PM 25.8144 -81.6961 341° North 95 109 3,800 -250 Descending Miami Center
Sat 08:26:55 PM 25.8417 -81.6997 353° North 95 109 3,400 -350 Descending Miami Center
Sat 08:27:55 PM 25.8683 -81.7075 345° North 101 116 3,100 -300 Descending Miami Center
Sat 08:29:00 PM 25.8936 -81.7206 335° Northwest  Level FlightAware Approximate
Sat 08:36:00 PM 26.0709 -81.7509 350° North  Level FlightAware Approximate
Sat 08:37:00 PM 26.0963 -81.7559 350° North  Level FlightAware Approximate
Sat 08:38:00 PM 26.1216 -81.7610 350° North  Level FlightAware Approximate
Sat 08:39:00 PM 26.1469 -81.7660 350° North  Level FlightAware Approximate
Sat 08:40:00 PM 26.1524 -81.7756 350° North  Level Estimated
Sat 08:41:00 PM 26.1524 -81.7756 107° East  Level Estimated
Sat 08:42:00 PM 26.1524 -81.7756 107° East  Level Estimated
Sat 08:43:00 PM 26.1524 -81.7756 107° East  Level Estimated
Sat 08:44:00 PM 26.1524 -81.7756 107° East  Level Estimated
Sat 08:45:00 PM 26.1524 -81.7756 107° East  Level Estimated
Sat 08:46:00 PM 26.1524 -81.7756 107° East  Level Estimated
Sat 08:47:00 PM 26.1524 -81.7756 107° East  Level Estimated
Sat 08:48:00 PM 26.1524 -81.7756 107° East  Level Estimated

Login

Don't have an account? Register now (free) for customized features, flight alerts, and more!